sensor_id;sensor_type;location;lat;lon;timestamp;pressure;altitude;pressure_sealevel;temperature;humidity
75166;BME280;63747;48.042;10.088;2023-09-19T00:01:11;94946.59;;;14.21;70.42
75166;BME280;63747;48.042;10.088;2023-09-19T00:04:12;94947.22;;;14.23;70.34
75166;BME280;63747;48.042;10.088;2023-09-19T00:07:14;94952.97;;;14.27;70.31
75166;BME280;63747;48.042;10.088;2023-09-19T00:10:16;94951.13;;;14.27;70.17
75166;BME280;63747;48.042;10.088;2023-09-19T00:13:17;94947.84;;;14.25;70.59
75166;BME280;63747;48.042;10.088;2023-09-19T00:16:18;94948.44;;;14.27;70.29
75166;BME280;63747;48.042;10.088;2023-09-19T00:19:20;94949.47;;;14.26;70.54
75166;BME280;63747;48.042;10.088;2023-09-19T00:22:21;94947.84;;;14.25;70.44
75166;BME280;63747;48.042;10.088;2023-09-19T00:25:21;94949.91;;;14.23;70.72
75166;BME280;63747;48.042;10.088;2023-09-19T00:28:22;94947.22;;;14.23;70.57
75166;BME280;63747;48.042;10.088;2023-09-19T00:31:23;94948.44;;;14.27;70.50
75166;BME280;63747;48.042;10.088;2023-09-19T00:34:23;94952.56;;;14.23;70.40
75166;BME280;63747;48.042;10.088;2023-09-19T00:37:29;94951.66;;;14.16;70.82
75166;BME280;63747;48.042;10.088;2023-09-19T00:40:30;94958.66;;;14.17;70.77
75166;BME280;63747;48.042;10.088;2023-09-19T00:43:33;94946.31;;;14.09;71.32
75166;BME280;63747;48.042;10.088;2023-09-19T00:46:34;94936.88;;;14.07;71.13
75166;BME280;63747;48.042;10.088;2023-09-19T00:49:35;94948.38;;;14.14;71.09
75166;BME280;63747;48.042;10.088;2023-09-19T00:52:38;94935.47;;;14.11;71.37
75166;BME280;63747;48.042;10.088;2023-09-19T00:55:39;94941.22;;;14.14;71.27
75166;BME280;63747;48.042;10.088;2023-09-19T00:58:47;94947.78;;;14.12;71.39
75166;BME280;63747;48.042;10.088;2023-09-19T01:01:48;94946.13;;;14.11;71.48
75166;BME280;63747;48.042;10.088;2023-09-19T01:04:54;94951.25;;;14.12;70.92
75166;BME280;63747;48.042;10.088;2023-09-19T01:07:55;94941.41;;;14.13;71.03
75166;BME280;63747;48.042;10.088;2023-09-19T01:11:00;94952.69;;;14.15;70.84
75166;BME280;63747;48.042;10.088;2023-09-19T01:14:12;94955.78;;;14.19;70.92
75166;BME280;63747;48.042;10.088;2023-09-19T01:17:26;94957.63;;;14.18;70.91
75166;BME280;63747;48.042;10.088;2023-09-19T01:24:10;94957.00;;;14.16;70.67
75166;BME280;63747;48.042;10.088;2023-09-19T01:30:32;94963.34;;;14.15;70.33
75166;BME280;63747;48.042;10.088;2023-09-19T01:33:54;94975.47;;;14.18;70.63
75166;BME280;63747;48.042;10.088;2023-09-19T01:36:59;94972.78;;;14.11;70.52
75166;BME280;63747;48.042;10.088;2023-09-19T01:40:09;94967.66;;;14.03;70.75
75166;BME280;63747;48.042;10.088;2023-09-19T01:43:33;94961.47;;;14.02;70.75
75166;BME280;63747;48.042;10.088;2023-09-19T01:46:40;94965.38;;;14.06;70.66
75166;BME280;63747;48.042;10.088;2023-09-19T01:53:11;94966.44;;;14.12;70.59
75166;BME280;63747;48.042;10.088;2023-09-19T01:56:21;94970.75;;;14.13;70.46
75166;BME280;63747;48.042;10.088;2023-09-19T01:59:30;94979.16;;;14.10;70.46
75166;BME280;63747;48.042;10.088;2023-09-19T02:02:36;94972.97;;;14.09;70.65
75166;BME280;63747;48.042;10.088;2023-09-19T02:05:38;94985.91;;;14.12;70.74
75166;BME280;63747;48.042;10.088;2023-09-19T02:08:39;94991.25;;;14.12;70.54
75166;BME280;63747;48.042;10.088;2023-09-19T02:11:40;94987.97;;;14.10;70.45
75166;BME280;63747;48.042;10.088;2023-09-19T02:14:42;94986.13;;;14.18;70.82
75166;BME280;63747;48.042;10.088;2023-09-19T02:17:43;94998.81;;;14.15;70.77
75166;BME280;63747;48.042;10.088;2023-09-19T02:20:44;94998.00;;;14.15;70.91
75166;BME280;63747;48.042;10.088;2023-09-19T02:23:45;94991.03;;;14.14;70.94
75166;BME280;63747;48.042;10.088;2023-09-19T02:26:47;94988.16;;;14.15;70.52
75166;BME280;63747;48.042;10.088;2023-09-19T02:29:48;94993.50;;;14.15;70.67
75166;BME280;63747;48.042;10.088;2023-09-19T02:32:49;94984.28;;;14.11;70.62
75166;BME280;63747;48.042;10.088;2023-09-19T02:35:55;94996.56;;;14.12;70.58
75166;BME280;63747;48.042;10.088;2023-09-19T02:38:57;94998.81;;;14.09;70.64
75166;BME280;63747;48.042;10.088;2023-09-19T02:41:58;94994.31;;;14.03;70.83
75166;BME280;63747;48.042;10.088;2023-09-19T02:44:59;95003.28;;;14.02;71.09
75166;BME280;63747;48.042;10.088;2023-09-19T02:48:00;95003.28;;;14.02;70.97
75166;BME280;63747;48.042;10.088;2023-09-19T02:51:02;95012.09;;;14.02;70.82
75166;BME280;63747;48.042;10.088;2023-09-19T02:54:03;95009.44;;;14.02;70.93
75166;BME280;63747;48.042;10.088;2023-09-19T02:57:04;95008.81;;;14.00;70.82
75166;BME280;63747;48.042;10.088;2023-09-19T03:00:07;95016.44;;;14.03;70.98
75166;BME280;63747;48.042;10.088;2023-09-19T03:03:10;95018.06;;;13.98;71.26
75166;BME280;63747;48.042;10.088;2023-09-19T03:06:11;95018.06;;;13.98;71.21
75166;BME280;63747;48.042;10.088;2023-09-19T03:09:13;95025.03;;;13.99;70.60
75166;BME280;63747;48.042;10.088;2023-09-19T03:12:13;95037.31;;;14.00;71.22
75166;BME280;63747;48.042;10.088;2023-09-19T03:15:16;95029.13;;;14.01;71.12
75166;BME280;63747;48.042;10.088;2023-09-19T03:18:18;95025.63;;;14.01;71.29
75166;BME280;63747;48.042;10.088;2023-09-19T03:21:19;95034.88;;;14.05;71.27
75166;BME280;63747;48.042;10.088;2023-09-19T03:24:22;95039.00;;;14.07;71.20
75166;BME280;63747;48.042;10.088;2023-09-19T03:27:23;95038.41;;;14.12;70.88
75166;BME280;63747;48.042;10.088;2023-09-19T03:30:24;95031.03;;;14.14;70.99
75166;BME280;63747;48.042;10.088;2023-09-19T03:33:25;95042.91;;;14.11;71.08
75166;BME280;63747;48.042;10.088;2023-09-19T03:36:25;95038.41;;;14.12;71.19
75166;BME280;63747;48.042;10.088;2023-09-19T03:39:28;95034.72;;;14.13;71.16
75166;BME280;63747;48.042;10.088;2023-09-19T03:42:28;95033.31;;;14.17;70.81
75166;BME280;63747;48.042;10.088;2023-09-19T03:45:29;95031.84;;;14.14;71.04
75166;BME280;63747;48.042;10.088;2023-09-19T03:48:30;95035.75;;;14.12;70.97
75166;BME280;63747;48.042;10.088;2023-09-19T03:51:30;95037.78;;;14.10;71.16
75166;BME280;63747;48.042;10.088;2023-09-19T03:54:31;95036.56;;;14.12;70.94
75166;BME280;63747;48.042;10.088;2023-09-19T03:57:32;95027.50;;;14.07;71.02
75166;BME280;63747;48.042;10.088;2023-09-19T04:00:36;95029.78;;;14.10;71.01
75166;BME280;63747;48.042;10.088;2023-09-19T04:03:36;95034.91;;;14.11;70.88
75166;BME280;63747;48.042;10.088;2023-09-19T04:06:47;95025.91;;;14.12;70.89
75166;BME280;63747;48.042;10.088;2023-09-19T04:09:48;95021.59;;;14.11;70.59
75166;BME280;63747;48.042;10.088;2023-09-19T04:12:53;95029.16;;;14.08;71.11
75166;BME280;63747;48.042;10.088;2023-09-19T04:15:54;95034.09;;;14.11;71.08
75166;BME280;63747;48.042;10.088;2023-09-19T04:18:54;95033.28;;;14.10;70.79
75166;BME280;63747;48.042;10.088;2023-09-19T04:21:55;95033.91;;;14.12;70.99
75166;BME280;63747;48.042;10.088;2023-09-19T04:24:56;95037.81;;;14.17;70.70
75166;BME280;63747;48.042;10.088;2023-09-19T04:27:57;95038.63;;;14.17;70.80
75166;BME280;63747;48.042;10.088;2023-09-19T04:30:58;95038.63;;;14.17;70.56
75166;BME280;63747;48.042;10.088;2023-09-19T04:33:59;95039.91;;;14.21;70.56
75166;BME280;63747;48.042;10.088;2023-09-19T04:37:05;95043.38;;;14.22;70.56
75166;BME280;63747;48.042;10.088;2023-09-19T04:40:10;95054.47;;;14.25;70.66
75166;BME280;63747;48.042;10.088;2023-09-19T04:43:12;95049.34;;;14.24;70.85
75166;BME280;63747;48.042;10.088;2023-09-19T04:46:13;95057.75;;;14.27;70.63
75166;BME280;63747;48.042;10.088;2023-09-19T04:49:14;95062.88;;;14.29;70.60
75166;BME280;63747;48.042;10.088;2023-09-19T04:52:14;95065.38;;;14.30;70.55
75166;BME280;63747;48.042;10.088;2023-09-19T04:55:16;95065.16;;;14.32;70.31
75166;BME280;63747;48.042;10.088;2023-09-19T04:58:18;95061.69;;;14.31;70.56
75166;BME280;63747;48.042;10.088;2023-09-19T05:01:20;95067.00;;;14.31;70.73
75166;BME280;63747;48.042;10.088;2023-09-19T05:04:22;95069.47;;;14.33;70.52
75166;BME280;63747;48.042;10.088;2023-09-19T05:07:23;95079.69;;;14.29;70.51
75166;BME280;63747;48.042;10.088;2023-09-19T05:10:26;95076.84;;;14.24;70.86
75166;BME280;63747;48.042;10.088;2023-09-19T05:13:26;95078.28;;;14.27;70.72
75166;BME280;63747;48.042;10.088;2023-09-19T05:16:28;95082.38;;;14.29;71.12
75166;BME280;63747;48.042;10.088;2023-09-19T05:19:29;95083.00;;;14.31;71.19
75166;BME280;63747;48.042;10.088;2023-09-19T05:22:30;95074.56;;;14.28;71.13
75166;BME280;63747;48.042;10.088;2023-09-19T05:25:32;95082.59;;;14.34;71.23
75166;BME280;63747;48.042;10.088;2023-09-19T05:28:38;95086.09;;;14.35;70.86
75166;BME280;63747;48.042;10.088;2023-09-19T05:31:38;95083.22;;;14.36;71.01
75166;BME280;63747;48.042;10.088;2023-09-19T05:34:41;95105.97;;;14.32;70.81
75166;BME280;63747;48.042;10.088;2023-09-19T05:37:42;95092.03;;;14.30;71.13
75166;BME280;63747;48.042;10.088;2023-09-19T05:40:42;95108.22;;;14.29;71.15
75166;BME280;63747;48.042;10.088;2023-09-19T05:43:45;95104.13;;;14.26;71.55
75166;BME280;63747;48.042;10.088;2023-09-19T05:46:45;95108.66;;;14.32;71.40
75166;BME280;63747;48.042;10.088;2023-09-19T05:49:48;95112.97;;;14.33;70.95
75166;BME280;63747;48.042;10.088;2023-09-19T05:52:57;95117.06;;;14.36;71.17
75166;BME280;63747;48.042;10.088;2023-09-19T05:55:58;95112.56;;;14.36;70.96
75166;BME280;63747;48.042;10.088;2023-09-19T05:59:01;95122.88;;;14.46;70.86
75166;BME280;63747;48.042;10.088;2023-09-19T06:02:01;95115.91;;;14.52;70.82
75166;BME280;63747;48.042;10.088;2023-09-19T06:05:06;95119.22;;;14.60;70.70
75166;BME280;63747;48.042;10.088;2023-09-19T06:08:10;95120.84;;;14.61;70.62
75166;BME280;63747;48.042;10.088;2023-09-19T06:11:11;95126.41;;;14.66;70.53
75166;BME280;63747;48.042;10.088;2023-09-19T06:14:15;95124.16;;;14.70;70.50
75166;BME280;63747;48.042;10.088;2023-09-19T06:17:17;95133.41;;;14.67;70.22
75166;BME280;63747;48.042;10.088;2023-09-19T06:20:19;95138.34;;;14.71;70.24
75166;BME280;63747;48.042;10.088;2023-09-19T06:23:21;95135.47;;;14.72;69.98
75166;BME280;63747;48.042;10.088;2023-09-19T06:26:22;95138.53;;;14.76;69.95
75166;BME280;63747;48.042;10.088;2023-09-19T06:29:23;95141.41;;;14.74;69.72
75166;BME280;63747;48.042;10.088;2023-09-19T06:32:27;95140.16;;;14.70;69.71
75166;BME280;63747;48.042;10.088;2023-09-19T06:35:32;95145.31;;;14.72;69.66
75166;BME280;63747;48.042;10.088;2023-09-19T06:38:33;95132.81;;;14.72;69.59
75166;BME280;63747;48.042;10.088;2023-09-19T06:41:37;95140.25;;;14.96;68.98
75166;BME280;63747;48.042;10.088;2023-09-19T06:44:39;95125.56;;;15.40;68.56
75166;BME280;63747;48.042;10.088;2023-09-19T06:47:41;95133.94;;;15.84;67.82
75166;BME280;63747;48.042;10.088;2023-09-19T06:50:42;95134.53;;;15.92;66.75
75166;BME280;63747;48.042;10.088;2023-09-19T06:53:44;95130.88;;;15.87;66.69
75166;BME280;63747;48.042;10.088;2023-09-19T06:56:45;95140.28;;;16.22;66.05
75166;BME280;63747;48.042;10.088;2023-09-19T06:59:46;95144.72;;;16.55;64.89
75166;BME280;63747;48.042;10.088;2023-09-19T07:05:58;95155.63;;;16.53;64.94
75166;BME280;63747;48.042;10.088;2023-09-19T07:08:59;95150.91;;;16.49;64.16
75166;BME280;63747;48.042;10.088;2023-09-19T07:12:00;95164.09;;;16.37;64.89
75166;BME280;63747;48.042;10.088;2023-09-19T07:15:01;95159.59;;;16.24;64.75
75166;BME280;63747;48.042;10.088;2023-09-19T07:18:02;95163.09;;;16.25;64.96
75166;BME280;63747;48.042;10.088;2023-09-19T07:21:02;95169.09;;;16.14;64.91
75166;BME280;63747;48.042;10.088;2023-09-19T07:24:06;95177.94;;;16.08;64.98
75166;BME280;63747;48.042;10.088;2023-09-19T07:27:08;95178.75;;;16.21;64.18
75166;BME280;63747;48.042;10.088;2023-09-19T07:30:09;95186.69;;;16.54;63.75
75166;BME280;63747;48.042;10.088;2023-09-19T07:33:11;95188.28;;;16.69;63.14
75166;BME280;63747;48.042;10.088;2023-09-19T07:36:12;95189.50;;;16.73;62.70
75166;BME280;63747;48.042;10.088;2023-09-19T07:39:13;95196.72;;;16.66;63.22
75166;BME280;63747;48.042;10.088;2023-09-19T07:42:17;95194.59;;;16.94;62.03
75166;BME280;63747;48.042;10.088;2023-09-19T07:45:18;95195.81;;;17.36;62.34
75166;BME280;63747;48.042;10.088;2023-09-19T07:48:19;95189.00;;;17.65;61.22
75166;BME280;63747;48.042;10.088;2023-09-19T07:51:20;95194.22;;;17.85;60.55
75166;BME280;63747;48.042;10.088;2023-09-19T07:54:20;95191.22;;;18.00;59.68
75166;BME280;63747;48.042;10.088;2023-09-19T07:57:21;95191.50;;;18.17;59.35
75166;BME280;63747;48.042;10.088;2023-09-19T08:00:22;95186.97;;;18.17;59.59
75166;BME280;63747;48.042;10.088;2023-09-19T08:03:22;95199.19;;;18.32;59.85
75166;BME280;63747;48.042;10.088;2023-09-19T08:06:23;95203.34;;;18.28;58.43
75166;BME280;63747;48.042;10.088;2023-09-19T08:09:24;95199.94;;;18.39;59.36
75166;BME280;63747;48.042;10.088;2023-09-19T08:12:25;95196.97;;;18.47;59.12
75166;BME280;63747;48.042;10.088;2023-09-19T08:15:25;95200.38;;;18.36;58.59
75166;BME280;63747;48.042;10.088;2023-09-19T08:18:27;95204.19;;;18.46;58.48
75166;BME280;63747;48.042;10.088;2023-09-19T08:21:30;95212.34;;;18.58;58.80
75166;BME280;63747;48.042;10.088;2023-09-19T08:24:31;95212.19;;;18.53;58.05
75166;BME280;63747;48.042;10.088;2023-09-19T08:27:33;95221.53;;;18.51;57.66
75166;BME280;63747;48.042;10.088;2023-09-19T08:30:34;95219.16;;;18.79;56.74
75166;BME280;63747;48.042;10.088;2023-09-19T08:33:40;95226.22;;;18.73;56.63
75166;BME280;63747;48.042;10.088;2023-09-19T08:36:41;95229.59;;;18.87;55.42
75166;BME280;63747;48.042;10.088;2023-09-19T08:39:44;95226.75;;;18.82;56.71
75166;BME280;63747;48.042;10.088;2023-09-19T08:42:51;95235.56;;;18.89;57.39
75166;BME280;63747;48.042;10.088;2023-09-19T08:46:14;95230.19;;;18.89;56.43
75166;BME280;63747;48.042;10.088;2023-09-19T08:49:26;95235.22;;;18.86;56.20
75166;BME280;63747;48.042;10.088;2023-09-19T08:52:42;95233.41;;;18.80;56.52
75166;BME280;63747;48.042;10.088;2023-09-19T08:55:43;95237.78;;;18.74;55.69
75166;BME280;63747;48.042;10.088;2023-09-19T08:58:50;95237.81;;;18.49;56.40
75166;BME280;63747;48.042;10.088;2023-09-19T09:01:53;95246.84;;;18.80;56.25
75166;BME280;63747;48.042;10.088;2023-09-19T09:04:56;95242.78;;;19.25;54.97
75166;BME280;63747;48.042;10.088;2023-09-19T09:07:59;95243.88;;;19.36;53.09
75166;BME280;63747;48.042;10.088;2023-09-19T09:11:00;95238.75;;;19.16;54.21
75166;BME280;63747;48.042;10.088;2023-09-19T09:14:01;95243.06;;;19.36;54.02
75166;BME280;63747;48.042;10.088;2023-09-19T09:17:04;95234.47;;;19.45;53.54
75166;BME280;63747;48.042;10.088;2023-09-19T09:20:06;95226.00;;;19.60;52.75
75166;BME280;63747;48.042;10.088;2023-09-19T09:23:10;95226.69;;;20.09;52.69
75166;BME280;63747;48.042;10.088;2023-09-19T09:26:11;95234.25;;;20.54;50.77
75166;BME280;63747;48.042;10.088;2023-09-19T09:29:11;95222.97;;;20.80;50.86
75166;BME280;63747;48.042;10.088;2023-09-19T09:32:29;95234.69;;;21.26;50.62
75166;BME280;63747;48.042;10.088;2023-09-19T09:35:33;95241.91;;;21.49;48.88
75166;BME280;63747;48.042;10.088;2023-09-19T09:38:46;95237.78;;;21.18;49.39
75166;BME280;63747;48.042;10.088;2023-09-19T09:41:48;95240.19;;;20.68;50.17
75166;BME280;63747;48.042;10.088;2023-09-19T09:48:12;95244.75;;;20.44;50.03
75166;BME280;63747;48.042;10.088;2023-09-19T09:51:31;95238.34;;;19.91;50.15
75166;BME280;63747;48.042;10.088;2023-09-19T09:54:35;95236.03;;;20.18;50.35
75166;BME280;63747;48.042;10.088;2023-09-19T09:57:41;95239.38;;;19.78;50.33
75166;BME280;63747;48.042;10.088;2023-09-19T10:00:54;95243.19;;;19.59;51.33
75166;BME280;63747;48.042;10.088;2023-09-19T10:03:58;95233.34;;;19.95;51.93
75166;BME280;63747;48.042;10.088;2023-09-19T10:07:00;95220.81;;;20.12;52.17
75166;BME280;63747;48.042;10.088;2023-09-19T10:10:06;95226.13;;;20.65;51.18
75166;BME280;63747;48.042;10.088;2023-09-19T10:13:15;95233.13;;;21.02;49.84
75166;BME280;63747;48.042;10.088;2023-09-19T10:16:18;95222.69;;;20.93;49.27
75166;BME280;63747;48.042;10.088;2023-09-19T10:19:52;95222.78;;;21.10;49.71
75166;BME280;63747;48.042;10.088;2023-09-19T10:22:57;95213.13;;;21.55;49.44
75166;BME280;63747;48.042;10.088;2023-09-19T10:26:01;95216.94;;;21.70;47.76
75166;BME280;63747;48.042;10.088;2023-09-19T10:29:02;95210.22;;;22.18;46.78
75166;BME280;63747;48.042;10.088;2023-09-19T10:32:07;95224.44;;;22.31;46.45
75166;BME280;63747;48.042;10.088;2023-09-19T10:35:11;95220.91;;;22.47;46.20
75166;BME280;63747;48.042;10.088;2023-09-19T10:38:17;95228.09;;;22.41;46.34
75166;BME280;63747;48.042;10.088;2023-09-19T10:41:22;95221.16;;;22.45;46.26
75166;BME280;63747;48.042;10.088;2023-09-19T10:44:24;95220.94;;;22.64;45.12
75166;BME280;63747;48.042;10.088;2023-09-19T10:47:25;95224.09;;;22.27;44.88
75166;BME280;63747;48.042;10.088;2023-09-19T10:50:50;95223.69;;;22.01;45.80
75166;BME280;63747;48.042;10.088;2023-09-19T10:53:54;95217.81;;;22.21;45.68
75166;BME280;63747;48.042;10.088;2023-09-19T10:56:56;95221.59;;;22.04;45.84
75166;BME280;63747;48.042;10.088;2023-09-19T11:00:17;95221.75;;;22.14;45.83
75166;BME280;63747;48.042;10.088;2023-09-19T11:03:27;95225.50;;;22.46;45.56
75166;BME280;63747;48.042;10.088;2023-09-19T11:06:30;95224.03;;;22.55;44.38
75166;BME280;63747;48.042;10.088;2023-09-19T11:09:50;95215.59;;;22.35;44.72
75166;BME280;63747;48.042;10.088;2023-09-19T11:12:55;95214.91;;;22.78;45.37
75166;BME280;63747;48.042;10.088;2023-09-19T11:18:57;95204.13;;;23.22;43.12
75166;BME280;63747;48.042;10.088;2023-09-19T11:22:01;95208.31;;;23.35;43.25
75166;BME280;63747;48.042;10.088;2023-09-19T11:28:38;95203.66;;;24.06;43.28
75166;BME280;63747;48.042;10.088;2023-09-19T11:31:43;95196.16;;;24.18;42.32
75166;BME280;63747;48.042;10.088;2023-09-19T11:34:45;95196.78;;;23.94;42.21
75166;BME280;63747;48.042;10.088;2023-09-19T11:44:33;95209.97;;;24.54;41.01
75166;BME280;63747;48.042;10.088;2023-09-19T11:47:34;95198.63;;;24.25;41.66
75166;BME280;63747;48.042;10.088;2023-09-19T11:50:36;95198.84;;;24.18;41.85
75166;BME280;63747;48.042;10.088;2023-09-19T11:53:43;95197.72;;;24.47;42.25
75166;BME280;63747;48.042;10.088;2023-09-19T11:56:45;95203.38;;;24.40;41.57
75166;BME280;63747;48.042;10.088;2023-09-19T11:59:49;95200.66;;;24.40;41.58
75166;BME280;63747;48.042;10.088;2023-09-19T12:02:55;95199.44;;;24.21;41.58
75166;BME280;63747;48.042;10.088;2023-09-19T12:06:00;95207.59;;;24.26;40.45
75166;BME280;63747;48.042;10.088;2023-09-19T12:09:03;95201.50;;;24.08;41.18
75166;BME280;63747;48.042;10.088;2023-09-19T12:12:07;95187.53;;;24.22;40.27
75166;BME280;63747;48.042;10.088;2023-09-19T12:15:09;95194.34;;;24.29;40.43
75166;BME280;63747;48.042;10.088;2023-09-19T12:18:31;95188.59;;;24.21;41.09
75166;BME280;63747;48.042;10.088;2023-09-19T12:21:33;95192.16;;;24.26;39.44
75166;BME280;63747;48.042;10.088;2023-09-19T12:24:36;95180.97;;;24.17;39.86
75166;BME280;63747;48.042;10.088;2023-09-19T12:27:45;95186.91;;;24.52;39.57
75166;BME280;63747;48.042;10.088;2023-09-19T12:30:56;95194.66;;;24.33;39.79
75166;BME280;63747;48.042;10.088;2023-09-19T12:33:58;95178.44;;;24.43;40.24
75166;BME280;63747;48.042;10.088;2023-09-19T12:40:24;95175.34;;;24.24;39.18
75166;BME280;63747;48.042;10.088;2023-09-19T12:43:29;95172.44;;;24.36;39.50
75166;BME280;63747;48.042;10.088;2023-09-19T12:46:33;95176.53;;;24.01;39.96
75166;BME280;63747;48.042;10.088;2023-09-19T12:49:33;95180.44;;;23.88;40.57
75166;BME280;63747;48.042;10.088;2023-09-19T12:52:37;95174.41;;;24.08;40.08
75166;BME280;63747;48.042;10.088;2023-09-19T12:55:38;95172.38;;;24.26;40.13
75166;BME280;63747;48.042;10.088;2023-09-19T12:58:55;95173.31;;;24.41;39.52
75166;BME280;63747;48.042;10.088;2023-09-19T13:02:03;95164.84;;;24.33;40.42
75166;BME280;63747;48.042;10.088;2023-09-19T13:05:07;95167.84;;;24.36;41.02
75166;BME280;63747;48.042;10.088;2023-09-19T13:08:30;95162.97;;;24.33;40.56
75166;BME280;63747;48.042;10.088;2023-09-19T13:11:38;95169.06;;;24.18;41.12
75166;BME280;63747;48.042;10.088;2023-09-19T13:14:40;95169.69;;;24.31;40.43
75166;BME280;63747;48.042;10.088;2023-09-19T13:17:46;95164.25;;;24.26;39.92
75166;BME280;63747;48.042;10.088;2023-09-19T13:21:09;95166.16;;;24.30;39.16
75166;BME280;63747;48.042;10.088;2023-09-19T13:24:23;95157.09;;;24.09;40.08
75166;BME280;63747;48.042;10.088;2023-09-19T13:27:26;95159.28;;;24.12;39.76
75166;BME280;63747;48.042;10.088;2023-09-19T13:30:27;95153.00;;;24.07;40.08
75166;BME280;63747;48.042;10.088;2023-09-19T13:33:47;95144.91;;;24.12;39.68
75166;BME280;63747;48.042;10.088;2023-09-19T13:36:47;95140.38;;;24.23;39.85
75166;BME280;63747;48.042;10.088;2023-09-19T13:39:48;95146.94;;;24.27;39.57
75166;BME280;63747;48.042;10.088;2023-09-19T13:42:49;95133.84;;;24.18;39.49
75166;BME280;63747;48.042;10.088;2023-09-19T13:45:53;95142.69;;;24.04;40.08
75166;BME280;63747;48.042;10.088;2023-09-19T13:48:53;95140.78;;;24.04;40.46
75166;BME280;63747;48.042;10.088;2023-09-19T13:51:59;95132.22;;;24.12;40.51
75166;BME280;63747;48.042;10.088;2023-09-19T13:55:01;95145.66;;;24.39;40.23
75166;BME280;63747;48.042;10.088;2023-09-19T13:58:02;95142.16;;;24.44;39.91
75166;BME280;63747;48.042;10.088;2023-09-19T14:01:06;95145.16;;;24.10;40.92
75166;BME280;63747;48.042;10.088;2023-09-19T14:04:12;95142.09;;;24.34;40.77
75166;BME280;63747;48.042;10.088;2023-09-19T14:07:13;95138.31;;;23.66;40.42
75166;BME280;63747;48.042;10.088;2023-09-19T14:10:15;95123.25;;;23.80;41.53
75166;BME280;63747;48.042;10.088;2023-09-19T14:13:15;95121.03;;;24.04;41.36
75166;BME280;63747;48.042;10.088;2023-09-19T14:16:16;95123.59;;;24.21;42.03
75166;BME280;63747;48.042;10.088;2023-09-19T14:19:18;95125.25;;;24.27;39.54
75166;BME280;63747;48.042;10.088;2023-09-19T14:22:19;95117.69;;;23.92;40.73
75166;BME280;63747;48.042;10.088;2023-09-19T14:25:19;95116.06;;;23.63;40.73
75166;BME280;63747;48.042;10.088;2023-09-19T14:28:20;95120.81;;;23.46;41.27
75166;BME280;63747;48.042;10.088;2023-09-19T14:31:21;95113.84;;;23.55;41.43
75166;BME280;63747;48.042;10.088;2023-09-19T14:34:21;95104.66;;;23.56;40.81
75166;BME280;63747;48.042;10.088;2023-09-19T14:37:22;95109.44;;;23.49;41.08
75166;BME280;63747;48.042;10.088;2023-09-19T14:40:23;95101.06;;;23.46;40.69
75166;BME280;63747;48.042;10.088;2023-09-19T14:43:23;95103.56;;;23.25;41.36
75166;BME280;63747;48.042;10.088;2023-09-19T14:46:24;95101.88;;;22.97;42.01
75166;BME280;63747;48.042;10.088;2023-09-19T14:49:25;95098.81;;;23.16;42.48
75166;BME280;63747;48.042;10.088;2023-09-19T14:52:26;95097.97;;;22.88;42.18
75166;BME280;63747;48.042;10.088;2023-09-19T14:55:28;95089.56;;;22.63;42.85
75166;BME280;63747;48.042;10.088;2023-09-19T14:58:34;95090.88;;;22.82;43.08
75166;BME280;63747;48.042;10.088;2023-09-19T15:01:35;95091.22;;;22.86;43.01
75166;BME280;63747;48.042;10.088;2023-09-19T15:04:36;95082.41;;;22.73;42.25
75166;BME280;63747;48.042;10.088;2023-09-19T15:07:40;95084.78;;;22.70;42.96
75166;BME280;63747;48.042;10.088;2023-09-19T15:10:49;95092.22;;;22.58;43.27
75166;BME280;63747;48.042;10.088;2023-09-19T15:13:52;95090.34;;;22.58;43.30
75166;BME280;63747;48.042;10.088;2023-09-19T15:16:57;95086.97;;;22.51;44.00
75166;BME280;63747;48.042;10.088;2023-09-19T15:19:57;95090.75;;;22.50;43.95
75166;BME280;63747;48.042;10.088;2023-09-19T15:22:58;95091.75;;;22.44;43.71
75166;BME280;63747;48.042;10.088;2023-09-19T15:26:01;95085.72;;;22.37;43.67
75166;BME280;63747;48.042;10.088;2023-09-19T15:29:01;95080.28;;;22.15;44.14
75166;BME280;63747;48.042;10.088;2023-09-19T15:32:02;95085.13;;;22.13;44.32
75166;BME280;63747;48.042;10.088;2023-09-19T15:35:03;95080.81;;;21.95;44.47
75166;BME280;63747;48.042;10.088;2023-09-19T15:38:04;95082.50;;;22.01;44.87
75166;BME280;63747;48.042;10.088;2023-09-19T15:41:05;95086.03;;;22.01;44.08
75166;BME280;63747;48.042;10.088;2023-09-19T15:44:17;95076.72;;;21.92;44.92
75166;BME280;63747;48.042;10.088;2023-09-19T15:47:18;95079.13;;;21.89;44.55
75166;BME280;63747;48.042;10.088;2023-09-19T15:50:20;95077.53;;;21.76;44.32
75166;BME280;63747;48.042;10.088;2023-09-19T15:53:21;95096.66;;;21.58;44.30
75166;BME280;63747;48.042;10.088;2023-09-19T15:56:26;95082.03;;;21.37;44.04
75166;BME280;63747;48.042;10.088;2023-09-19T15:59:27;95081.69;;;21.16;43.85
75166;BME280;63747;48.042;10.088;2023-09-19T16:02:28;95077.94;;;21.06;44.70
75166;BME280;63747;48.042;10.088;2023-09-19T16:05:36;95085.28;;;21.22;45.50
75166;BME280;63747;48.042;10.088;2023-09-19T16:08:41;95086.41;;;21.26;45.45
75166;BME280;63747;48.042;10.088;2023-09-19T16:11:41;95077.03;;;21.29;45.88
75166;BME280;63747;48.042;10.088;2023-09-19T16:14:43;95083.00;;;21.31;45.75
75166;BME280;63747;48.042;10.088;2023-09-19T16:17:44;95083.66;;;21.21;45.61
75166;BME280;63747;48.042;10.088;2023-09-19T16:20:45;95081.78;;;21.10;45.95
75166;BME280;63747;48.042;10.088;2023-09-19T16:23:48;95081.69;;;21.05;46.55
75166;BME280;63747;48.042;10.088;2023-09-19T16:26:49;95083.56;;;21.04;46.66
75166;BME280;63747;48.042;10.088;2023-09-19T16:29:51;95079.84;;;20.93;46.53
75166;BME280;63747;48.042;10.088;2023-09-19T16:32:53;95081.41;;;20.89;46.91